createdAt,value
2018-06-08T00:01:14.981Z,32.60
2018-06-08T00:03:43.321Z,28.50
2018-06-08T00:06:11.650Z,33.77
2018-06-08T00:08:39.966Z,39.80
2018-06-08T00:11:08.278Z,32.47
2018-06-08T00:13:36.583Z,31.07
2018-06-08T00:16:04.905Z,34.47
2018-06-08T00:18:33.216Z,30.50
2018-06-08T00:21:01.522Z,30.50
2018-06-08T00:23:29.817Z,35.60
2018-06-08T00:25:58.142Z,33.63
2018-06-08T00:28:26.439Z,30.03
2018-06-08T00:30:54.755Z,29.57
2018-06-08T00:33:23.069Z,31.37
2018-06-08T00:35:51.397Z,33.67
2018-06-08T00:38:19.716Z,44.37
2018-06-08T00:40:48.032Z,29.20
2018-06-08T00:43:16.364Z,29.33
2018-06-08T00:45:44.671Z,25.70
2018-06-08T00:48:12.976Z,29.80
2018-06-08T00:50:41.295Z,27.07
2018-06-08T00:53:09.609Z,42.07
2018-06-08T00:55:37.925Z,31.90
2018-06-08T00:58:06.261Z,29.10
2018-06-08T01:00:34.580Z,37.30
2018-06-08T01:03:02.879Z,43.70
2018-06-08T01:05:31.198Z,35.67
2018-06-08T01:07:59.520Z,32.50
2018-06-08T01:10:27.958Z,25.30
2018-06-08T01:12:56.397Z,43.17
2018-06-08T01:15:24.531Z,28.33
2018-06-08T01:17:53.078Z,36.87
2018-06-08T01:20:21.417Z,27.80
2018-06-08T01:22:49.733Z,25.33
2018-06-08T01:25:18.021Z,34.77
2018-06-08T01:27:46.322Z,28.03
2018-06-08T01:30:15.285Z,31.40
2018-06-08T01:32:43.576Z,27.27
2018-06-08T01:35:12.557Z,23.83
2018-06-08T01:37:40.872Z,35.63
2018-06-08T01:40:09.163Z,39.50
2018-06-08T01:42:37.478Z,28.73
2018-06-08T01:45:05.774Z,36.87
2018-06-08T01:47:34.080Z,44.97
2018-06-08T01:50:02.406Z,31.60
2018-06-08T01:52:30.717Z,31.07
2018-06-08T01:54:59.052Z,29.53
2018-06-08T01:57:27.340Z,35.20
2018-06-08T01:59:55.629Z,27.20
2018-06-08T02:02:23.937Z,37.83
2018-06-08T02:04:52.263Z,27.50
2018-06-08T02:07:21.145Z,36.03
2018-06-08T02:09:49.786Z,38.47
2018-06-08T02:12:18.621Z,39.93
2018-06-08T02:14:47.041Z,29.53
2018-06-08T02:17:15.333Z,31.80
2018-06-08T02:19:43.637Z,38.20
2018-06-08T02:22:11.925Z,32.93
2018-06-08T02:24:40.207Z,32.37
2018-06-08T02:27:08.509Z,31.83
2018-06-08T02:29:36.797Z,29.10
2018-06-08T02:32:05.097Z,27.40
2018-06-08T02:34:33.398Z,41.80
2018-06-08T02:37:01.686Z,43.83
2018-06-08T02:39:30.061Z,46.07
2018-06-08T02:41:58.369Z,36.57
2018-06-08T02:44:26.665Z,35.63
2018-06-08T02:46:54.982Z,29.73
2018-06-08T02:49:23.279Z,45.77
2018-06-08T02:51:51.636Z,26.07
2018-06-08T02:54:19.981Z,35.87
2018-06-08T02:56:48.264Z,35.83
2018-06-08T02:59:16.574Z,36.70
2018-06-08T03:01:45.457Z,36.73
2018-06-08T03:04:13.745Z,28.50
2018-06-08T03:06:42.076Z,40.67
2018-06-08T03:09:10.458Z,41.20
2018-06-08T03:11:38.781Z,39.30
2018-06-08T03:14:07.075Z,44.50
2018-06-08T03:16:35.604Z,42.33
2018-06-08T03:19:03.900Z,40.63
2018-06-08T03:21:32.200Z,38.87
2018-06-08T03:24:00.497Z,30.00
2018-06-08T03:26:28.782Z,29.07
2018-06-08T03:28:57.084Z,38.23
2018-06-08T03:31:25.389Z,26.43
2018-06-08T03:33:53.696Z,41.80
2018-06-08T03:36:21.981Z,24.30
2018-06-08T03:38:50.374Z,24.93
2018-06-08T03:41:18.662Z,26.47
2018-06-08T03:43:46.972Z,25.50
2018-06-08T03:46:15.263Z,20.87
2018-06-08T03:48:43.608Z,21.17
2018-06-08T03:51:11.908Z,27.17
2018-06-08T03:53:40.491Z,20.83
2018-06-08T03:56:08.778Z,21.77
2018-06-08T03:58:37.076Z,17.67
2018-06-08T04:01:05.917Z,17.50
2018-06-08T04:03:34.673Z,15.53
2018-06-08T04:06:02.986Z,19.23
2018-06-08T04:08:31.280Z,17.80
2018-06-08T04:10:59.590Z,21.60
2018-06-08T04:13:27.904Z,17.40
2018-06-08T04:15:56.433Z,17.83
2018-06-08T04:18:24.725Z,15.47
2018-06-08T04:20:53.035Z,19.33
2018-06-08T04:23:21.340Z,16.73
2018-06-08T04:25:49.691Z,18.37
2018-06-08T04:28:17.770Z,19.83
2018-06-08T04:30:46.071Z,21.37
2018-06-08T04:33:14.392Z,18.13
2018-06-08T04:35:42.792Z,18.00
2018-06-08T04:38:11.106Z,19.37
2018-06-08T04:40:39.165Z,19.70
2018-06-08T04:43:07.458Z,21.00
2018-06-08T04:45:35.472Z,21.53
2018-06-08T04:48:03.776Z,20.97
2018-06-08T04:50:32.097Z,20.27
2018-06-08T04:53:00.396Z,20.67
2018-06-08T04:55:28.709Z,25.60
2018-06-08T04:57:57.043Z,23.00
2018-06-08T05:00:25.361Z,22.73
2018-06-08T05:02:53.673Z,21.00
2018-06-08T05:05:21.961Z,21.10
2018-06-08T05:07:50.301Z,20.80
2018-06-08T05:10:18.602Z,23.50
2018-06-08T05:12:46.891Z,23.03
2018-06-08T05:15:15.203Z,24.00
2018-06-08T05:17:43.581Z,20.57
2018-06-08T05:20:11.901Z,18.57
2018-06-08T05:22:40.198Z,19.57
2018-06-08T05:25:08.213Z,19.50
2018-06-08T05:27:36.512Z,18.43
2018-06-08T05:30:09.074Z,19.23
2018-06-08T05:32:37.385Z,18.93
2018-06-08T05:35:05.418Z,20.80
2018-06-08T05:37:34.097Z,20.47
2018-06-08T05:40:02.803Z,21.83
2018-06-08T05:42:31.111Z,22.17
2018-06-08T05:44:59.121Z,22.47
2018-06-08T05:47:27.437Z,21.03
2018-06-08T05:49:56.152Z,19.37
2018-06-08T05:52:24.489Z,16.27
2018-06-08T05:54:53.053Z,17.40
2018-06-08T05:57:21.374Z,19.93
2018-06-08T05:59:49.649Z,19.03
2018-06-08T06:02:17.953Z,18.83
2018-06-08T06:04:46.241Z,20.60
2018-06-08T06:07:14.541Z,22.23
2018-06-08T06:09:42.821Z,23.10
2018-06-08T06:12:12.117Z,20.57
2018-06-08T06:14:40.924Z,23.07
2018-06-08T06:17:09.248Z,21.17
2018-06-08T06:19:37.532Z,21.30
2018-06-08T06:22:05.924Z,22.53
2018-06-08T06:24:34.237Z,22.73
2018-06-08T06:27:02.577Z,23.07
2018-06-08T06:29:31.072Z,24.67
2018-06-08T06:31:59.547Z,21.10
2018-06-08T06:34:28.135Z,22.03
2018-06-08T06:36:56.766Z,21.33
2018-06-08T06:39:25.510Z,19.40
2018-06-08T06:41:54.219Z,19.50
2018-06-08T06:44:22.743Z,22.40
2018-06-08T06:46:51.052Z,24.43
2018-06-08T06:49:19.720Z,25.47
2018-06-08T06:51:48.338Z,21.87
2018-06-08T06:54:16.885Z,22.23
2018-06-08T06:56:45.454Z,25.20
2018-06-08T06:59:14.138Z,23.87
2018-06-08T07:01:42.622Z,27.77
2018-06-08T07:04:11.141Z,25.67
2018-06-08T07:06:39.710Z,28.33
2018-06-08T07:09:09.118Z,27.93
2018-06-08T07:11:37.770Z,27.73
2018-06-08T07:14:06.309Z,27.27
2018-06-08T07:16:34.934Z,22.47
2018-06-08T07:19:03.293Z,26.07
2018-06-08T07:21:31.888Z,26.00
2018-06-08T07:24:00.415Z,25.67
2018-06-08T07:26:29.620Z,24.50
2018-06-08T07:28:58.097Z,25.20
2018-06-08T07:31:26.715Z,25.17
2018-06-08T07:33:55.222Z,27.77
2018-06-08T07:36:23.860Z,29.73
2018-06-08T07:38:52.458Z,28.33
2018-06-08T07:41:21.139Z,26.53
2018-06-08T07:43:49.753Z,25.53
2018-06-08T07:46:18.060Z,27.17
2018-06-08T07:48:46.382Z,28.20
2018-06-08T07:51:14.732Z,25.80
2018-06-08T07:53:43.349Z,27.57
2018-06-08T07:56:11.639Z,27.00
2018-06-08T07:58:39.923Z,24.77
2018-06-08T08:01:08.238Z,29.30
2018-06-08T08:03:36.551Z,30.73
2018-06-08T08:06:04.891Z,31.37
2018-06-08T08:08:33.221Z,30.83
2018-06-08T08:11:01.554Z,30.60
2018-06-08T08:13:29.849Z,30.47
2018-06-08T08:15:58.149Z,29.20
2018-06-08T08:18:26.449Z,28.50
2018-06-08T08:20:54.465Z,29.73
2018-06-08T08:23:22.776Z,27.53
2018-06-08T08:25:51.167Z,28.77
2018-06-08T08:28:19.429Z,30.20
2018-06-08T08:30:47.747Z,29.67
2018-06-08T08:33:16.231Z,29.03
2018-06-08T08:35:44.611Z,29.37
2018-06-08T08:38:13.090Z,29.37
2018-06-08T08:40:41.393Z,29.10
2018-06-08T08:43:09.970Z,30.40
2018-06-08T08:45:38.548Z,31.07
2018-06-08T08:48:06.853Z,28.67
2018-06-08T08:50:35.364Z,27.13
2018-06-08T08:53:06.593Z,24.10
2018-06-08T08:55:34.909Z,26.00
2018-06-08T08:58:03.201Z,25.80
2018-06-08T09:00:31.509Z,27.87
2018-06-08T09:02:59.844Z,24.47
2018-06-08T09:05:31.221Z,23.40
2018-06-08T09:07:59.518Z,21.10
2018-06-08T09:10:27.861Z,22.27
2018-06-08T09:12:56.204Z,23.43
2018-06-08T09:15:24.579Z,21.00
2018-06-08T09:17:53.135Z,23.10
2018-06-08T09:20:21.642Z,19.57
2018-06-08T09:22:50.075Z,19.53
2018-06-08T09:25:19.077Z,16.57
2018-06-08T09:27:47.409Z,17.73
2018-06-08T09:30:15.866Z,22.40
2018-06-08T09:32:44.316Z,24.07
2018-06-08T09:35:12.642Z,20.70
2018-06-08T09:37:40.940Z,23.37
2018-06-08T09:40:09.506Z,18.10
2018-06-08T09:42:38.055Z,21.60
2018-06-08T09:45:06.586Z,16.80
2018-06-08T09:47:35.110Z,16.63
2018-06-08T09:50:03.628Z,16.23
2018-06-08T09:52:31.959Z,12.13
2018-06-08T09:55:01.192Z,10.63
2018-06-08T09:57:29.359Z,10.83
2018-06-08T09:59:57.828Z,11.90
2018-06-08T10:02:26.133Z,11.30
2018-06-08T10:04:54.598Z,10.90
2018-06-08T10:07:22.883Z,10.37
2018-06-08T10:09:51.197Z,9.73
2018-06-08T10:12:19.672Z,10.83
2018-06-08T10:14:47.999Z,10.00
2018-06-08T10:17:16.556Z,9.60
2018-06-08T10:19:45.037Z,13.80
2018-06-08T10:22:13.326Z,11.63
2018-06-08T10:24:41.798Z,11.60
2018-06-08T10:27:10.223Z,8.93
2018-06-08T10:29:38.549Z,15.83
2018-06-08T10:32:07.005Z,15.47
2018-06-08T10:34:35.322Z,16.70
2018-06-08T10:37:03.642Z,16.27
2018-06-08T10:39:31.921Z,16.33
2018-06-08T10:42:00.319Z,17.30
2018-06-08T10:44:28.865Z,18.97
2018-06-08T10:46:57.190Z,17.87
2018-06-08T10:49:25.729Z,15.83
2018-06-08T10:51:54.210Z,16.60
2018-06-08T10:54:22.527Z,16.67
2018-06-08T10:56:50.876Z,16.60
2018-06-08T10:59:20.387Z,16.30
2018-06-08T11:01:48.753Z,17.53
2018-06-08T11:04:17.181Z,20.90
2018-06-08T11:06:45.538Z,21.33
2018-06-08T11:09:13.843Z,18.77
2018-06-08T11:11:42.132Z,20.87
2018-06-08T11:14:10.643Z,21.53
2018-06-08T11:16:39.194Z,20.47
2018-06-08T11:19:07.493Z,21.33
2018-06-08T11:21:36.027Z,18.87
2018-06-08T11:24:04.386Z,20.37
2018-06-08T11:26:32.876Z,19.27
2018-06-08T11:29:01.324Z,16.73
2018-06-08T11:31:29.736Z,16.40
2018-06-08T11:33:58.094Z,17.50
2018-06-08T11:36:26.398Z,16.10
2018-06-08T11:38:54.814Z,16.63
2018-06-08T11:41:23.223Z,16.30
2018-06-08T11:43:51.659Z,16.37
2018-06-08T11:46:20.199Z,12.37
2018-06-08T11:48:48.721Z,14.40
2018-06-08T11:51:17.149Z,13.13
2018-06-08T11:53:45.658Z,12.50
2018-06-08T11:56:14.235Z,12.20
2018-06-08T11:58:42.736Z,11.07
2018-06-08T12:01:11.222Z,10.50
2018-06-08T12:03:39.815Z,10.43
2018-06-08T12:06:08.286Z,9.20
2018-06-08T12:08:36.722Z,9.40
2018-06-08T12:11:05.237Z,15.13
2018-06-08T12:13:33.670Z,12.87
2018-06-08T12:16:02.174Z,15.40
2018-06-08T12:18:30.643Z,12.80
2018-06-08T12:20:58.951Z,11.63
2018-06-08T12:23:27.443Z,12.90
2018-06-08T12:25:56.474Z,11.50
2018-06-08T12:28:24.917Z,9.27
2018-06-08T12:30:53.339Z,10.97
2018-06-08T12:33:21.806Z,10.53
2018-06-08T12:35:50.369Z,10.87
2018-06-08T12:38:18.855Z,11.23
2018-06-08T12:40:47.142Z,12.50
2018-06-08T12:43:15.518Z,11.93
2018-06-08T12:45:43.942Z,10.47
2018-06-08T12:48:12.448Z,9.87
2018-06-08T12:50:40.957Z,11.40
2018-06-08T12:53:09.417Z,8.50
2018-06-08T12:55:37.841Z,13.67
2018-06-08T12:58:06.346Z,11.10
2018-06-08T13:00:34.694Z,12.07
2018-06-08T13:03:03.202Z,11.03
2018-06-08T13:05:31.695Z,11.03
2018-06-08T13:08:00.132Z,7.97
2018-06-08T13:10:28.431Z,8.00
2018-06-08T13:12:56.863Z,7.30
2018-06-08T13:15:25.379Z,8.30
2018-06-08T13:17:53.823Z,7.67
2018-06-08T13:20:22.311Z,9.17
2018-06-08T13:22:50.752Z,10.60
2018-06-08T13:25:19.258Z,9.17
2018-06-08T13:27:47.724Z,9.40
2018-06-08T13:30:16.285Z,9.40
2018-06-08T13:32:44.714Z,9.13
2018-06-08T13:35:13.021Z,10.37
2018-06-08T13:37:41.497Z,10.57
2018-06-08T13:40:09.988Z,9.37
2018-06-08T13:42:38.509Z,8.40
2018-06-08T13:45:06.969Z,10.60
2018-06-08T13:47:35.450Z,9.73
2018-06-08T13:50:04.043Z,10.73
2018-06-08T13:52:32.501Z,10.17
2018-06-08T13:55:02.184Z,8.67
2018-06-08T13:57:31.024Z,9.67
2018-06-08T13:59:59.436Z,9.77
2018-06-08T14:02:27.922Z,8.40
2018-06-08T14:04:56.482Z,7.50
2018-06-08T14:07:24.839Z,9.30
2018-06-08T14:09:53.306Z,8.47
2018-06-08T14:12:21.806Z,7.50
2018-06-08T14:14:50.278Z,7.77
2018-06-08T14:17:18.597Z,7.37
2018-06-08T14:19:47.078Z,7.07
2018-06-08T14:22:15.505Z,8.00
2018-06-08T14:24:43.971Z,7.87
2018-06-08T14:27:12.633Z,8.83
2018-06-08T14:29:41.050Z,8.03
2018-06-08T14:32:09.457Z,8.10
2018-06-08T14:34:38.048Z,8.00
2018-06-08T14:37:06.597Z,10.63
2018-06-08T14:39:34.946Z,9.30
2018-06-08T14:42:03.365Z,7.73
2018-06-08T14:44:31.902Z,8.67
2018-06-08T14:47:00.393Z,7.67
2018-06-08T14:49:28.858Z,8.10
2018-06-08T14:51:57.311Z,7.70
2018-06-08T14:54:25.801Z,8.40
2018-06-08T14:56:54.298Z,9.03
2018-06-08T14:59:22.616Z,7.60
2018-06-08T15:01:50.943Z,10.50
2018-06-08T15:04:19.371Z,8.37
2018-06-08T15:06:47.897Z,7.90
2018-06-08T15:09:16.455Z,7.80
2018-06-08T15:11:44.810Z,7.20
2018-06-08T15:14:13.317Z,7.10
2018-06-08T15:16:41.900Z,8.00
2018-06-08T15:19:10.393Z,7.73
2018-06-08T15:21:38.879Z,8.57
2018-06-08T15:24:07.889Z,8.30
2018-06-08T15:26:36.202Z,8.53
2018-06-08T15:29:04.734Z,8.70
2018-06-08T15:31:34.115Z,7.87
2018-06-08T15:34:02.481Z,8.67
2018-06-08T15:36:31.474Z,10.50
2018-06-08T15:39:00.095Z,11.83
2018-06-08T15:41:28.677Z,9.37
2018-06-08T15:43:57.636Z,8.83
2018-06-08T15:46:26.182Z,9.27
2018-06-08T15:48:54.659Z,6.33
2018-06-08T15:51:23.244Z,6.47
2018-06-08T15:53:51.762Z,6.73
2018-06-08T15:56:20.270Z,10.87
2018-06-08T15:58:48.712Z,7.47
2018-06-08T16:01:17.165Z,5.70
2018-06-08T16:03:45.513Z,6.97
2018-06-08T16:06:13.786Z,5.77
2018-06-08T16:08:42.576Z,5.77
2018-06-08T16:11:11.066Z,8.40
2018-06-08T16:13:39.385Z,7.57
2018-06-08T16:16:07.793Z,10.43
2018-06-08T16:18:36.109Z,7.83
2018-06-08T16:21:04.561Z,6.53
2018-06-08T16:23:33.017Z,7.40
2018-06-08T16:26:01.765Z,5.43
2018-06-08T16:28:30.399Z,9.97
2018-06-08T16:30:58.822Z,7.30
2018-06-08T16:33:27.303Z,9.77
2018-06-08T16:35:55.717Z,6.43
2018-06-08T16:38:24.138Z,6.93
2018-06-08T16:40:52.583Z,6.60
2018-06-08T16:43:21.070Z,5.60
2018-06-08T16:45:49.084Z,6.60
2018-06-08T16:48:17.570Z,6.53
2018-06-08T16:50:45.988Z,9.10
2018-06-08T16:53:14.327Z,7.17
2018-06-08T16:55:42.769Z,7.00
2018-06-08T16:58:11.190Z,6.23
2018-06-08T17:00:43.732Z,5.60
2018-06-08T17:03:13.454Z,4.80
2018-06-08T17:05:42.301Z,5.13
2018-06-08T17:08:11.487Z,5.70
2018-06-08T17:10:39.903Z,5.40
2018-06-08T17:13:08.239Z,4.83
2018-06-08T17:15:37.194Z,5.83
2018-06-08T17:18:06.378Z,4.90
2018-06-08T17:20:34.662Z,5.60
2018-06-08T17:23:02.945Z,5.43
2018-06-08T17:25:31.956Z,5.17
2018-06-08T17:28:01.174Z,5.83
2018-06-08T17:30:29.463Z,6.63
2018-06-08T17:32:57.725Z,8.53
2018-06-08T17:35:26.606Z,11.23
2018-06-08T17:37:55.943Z,5.57
2018-06-08T17:40:24.311Z,5.80
2018-06-08T17:42:52.597Z,7.33
2018-06-08T17:45:20.909Z,13.50
2018-06-08T17:47:49.869Z,17.80
2018-06-08T17:50:18.429Z,13.30
2018-06-08T17:52:47.464Z,35.73
2018-06-08T17:55:23.755Z,29.03
2018-06-08T17:57:52.102Z,34.80
2018-06-08T18:00:20.997Z,18.37
2018-06-08T18:02:49.331Z,14.03
2018-06-08T18:05:18.222Z,8.47
2018-06-08T18:07:47.109Z,6.17
2018-06-08T18:10:15.938Z,7.57
2018-06-08T18:12:44.283Z,11.73
2018-06-08T18:15:12.971Z,15.30
2018-06-08T18:17:41.351Z,6.13
2018-06-08T18:20:09.608Z,14.33
2018-06-08T18:22:38.305Z,15.43
2018-06-08T18:25:06.610Z,12.90
2018-06-08T18:27:35.729Z,6.40
2018-06-08T18:30:05.275Z,8.70
2018-06-08T18:32:33.574Z,6.57
2018-06-08T18:35:01.862Z,4.20
2018-06-08T18:37:30.846Z,4.93
2018-06-08T18:39:59.208Z,5.67
2018-06-08T18:42:27.433Z,6.43
2018-06-08T18:44:56.464Z,5.40
2018-06-08T18:47:25.228Z,4.00
2018-06-08T18:49:53.542Z,3.87
2018-06-08T18:52:22.581Z,5.00
2018-06-08T18:54:51.681Z,4.53
2018-06-08T18:57:20.706Z,5.30
2018-06-08T18:59:49.783Z,4.43
2018-06-08T19:02:18.066Z,5.73
2018-06-08T19:04:46.928Z,4.53
2018-06-08T19:07:15.924Z,5.00
2018-06-08T19:09:44.197Z,4.50
2018-06-08T19:12:12.553Z,5.87
2018-06-08T19:14:40.915Z,4.07
2018-06-08T19:17:09.774Z,4.80
2018-06-08T19:19:38.143Z,4.00
2018-06-08T19:22:08.448Z,4.40
2018-06-08T19:24:39.337Z,4.27
2018-06-08T19:27:09.686Z,3.93
2018-06-08T19:29:39.805Z,4.37
2018-06-08T19:32:10.724Z,4.17
2018-06-08T19:34:41.163Z,5.67
2018-06-08T19:37:12.724Z,5.90
2018-06-08T19:39:42.919Z,5.70
2018-06-08T19:42:17.872Z,5.60
2018-06-08T19:44:51.230Z,4.83
2018-06-08T19:47:23.983Z,4.10
2018-06-08T19:49:55.546Z,4.63
2018-06-08T19:52:26.965Z,4.40
2018-06-08T19:54:58.195Z,4.53
2018-06-08T19:57:28.441Z,6.10
2018-06-08T19:59:59.230Z,4.57
2018-06-08T20:02:28.193Z,5.10
2018-06-08T20:04:56.511Z,4.33
2018-06-08T20:07:24.800Z,5.47
2018-06-08T20:09:53.778Z,5.27
2018-06-08T20:12:22.058Z,4.53
2018-06-08T20:14:50.954Z,4.83
2018-06-08T20:17:19.937Z,5.37
2018-06-08T20:19:48.215Z,4.37
2018-06-08T20:22:16.679Z,4.30
2018-06-08T20:24:45.011Z,4.50
2018-06-08T20:27:13.354Z,5.20
2018-06-08T20:29:41.841Z,5.67
2018-06-08T20:32:10.733Z,7.40
2018-06-08T20:34:39.054Z,6.90
2018-06-08T20:37:07.348Z,4.87
2018-06-08T20:39:35.614Z,7.20
2018-06-08T20:42:03.909Z,5.97
2018-06-08T20:44:32.209Z,6.20
2018-06-08T20:47:00.493Z,5.73
2018-06-08T20:49:28.793Z,7.83
2018-06-08T20:52:03.893Z,6.27
2018-06-08T20:54:32.276Z,5.53
2018-06-08T20:57:10.452Z,6.87
2018-06-08T20:59:38.813Z,7.10
2018-06-08T21:02:07.559Z,5.93
2018-06-08T21:04:35.905Z,6.13
2018-06-08T21:07:04.343Z,8.07
2018-06-08T21:09:32.727Z,6.03
2018-06-08T21:12:01.039Z,5.17
2018-06-08T21:14:29.393Z,7.83
2018-06-08T21:16:57.712Z,5.27
2018-06-08T21:19:26.075Z,6.53
2018-06-08T21:21:54.438Z,5.13
2018-06-08T21:24:22.778Z,7.17
2018-06-08T21:26:51.144Z,5.57
2018-06-08T21:29:19.487Z,9.97
2018-06-08T21:31:47.795Z,7.67
2018-06-08T21:34:16.128Z,7.00
2018-06-08T21:36:44.497Z,6.73
2018-06-08T21:39:12.783Z,6.83
2018-06-08T21:41:41.082Z,6.63
2018-06-08T21:44:09.470Z,7.43
2018-06-08T21:46:37.846Z,7.67
2018-06-08T21:49:06.802Z,7.00
2018-06-08T21:51:35.162Z,6.27
2018-06-08T21:54:03.480Z,10.40
2018-06-08T21:56:32.181Z,6.57
2018-06-08T21:59:00.535Z,7.77
2018-06-08T22:01:28.881Z,7.43
2018-06-08T22:03:57.219Z,6.53
2018-06-08T22:06:25.529Z,7.13
2018-06-08T22:08:53.552Z,6.80
2018-06-08T22:11:21.853Z,7.90
2018-06-08T22:13:50.135Z,7.73
2018-06-08T22:16:18.584Z,6.47
2018-06-08T22:18:47.008Z,5.60
2018-06-08T22:21:15.329Z,7.67
2018-06-08T22:23:43.641Z,7.67
2018-06-08T22:26:11.989Z,6.17
2018-06-08T22:28:40.261Z,8.17
2018-06-08T22:31:08.565Z,10.37
2018-06-08T22:33:36.881Z,6.43
2018-06-08T22:36:04.978Z,6.70
2018-06-08T22:38:33.264Z,6.00
2018-06-08T22:41:01.631Z,7.63
2018-06-08T22:43:30.117Z,5.53
2018-06-08T22:45:58.437Z,5.50
2018-06-08T22:48:26.732Z,6.23
2018-06-08T22:50:55.034Z,7.00
2018-06-08T22:53:23.320Z,4.70
2018-06-08T22:55:51.617Z,5.80
2018-06-08T22:58:19.922Z,6.17
2018-06-08T23:00:48.267Z,6.37
2018-06-08T23:03:16.597Z,4.13
2018-06-08T23:05:44.921Z,4.73
2018-06-08T23:08:13.205Z,4.93
2018-06-08T23:10:41.512Z,4.33
2018-06-08T23:13:09.922Z,6.43
2018-06-08T23:15:38.259Z,5.93
2018-06-08T23:18:06.548Z,4.80
2018-06-08T23:20:34.973Z,4.67
2018-06-08T23:23:03.285Z,4.77
2018-06-08T23:25:31.574Z,7.13
2018-06-08T23:27:59.951Z,4.60
2018-06-08T23:30:28.250Z,5.70
2018-06-08T23:32:56.529Z,4.90
2018-06-08T23:35:24.995Z,4.00
2018-06-08T23:37:53.361Z,7.03
2018-06-08T23:40:21.656Z,6.17
2018-06-08T23:42:52.930Z,5.53
2018-06-08T23:45:21.221Z,4.93
2018-06-08T23:47:49.534Z,5.43
2018-06-08T23:50:17.930Z,7.50
2018-06-08T23:52:46.209Z,4.90
2018-06-08T23:55:14.496Z,5.07
2018-06-08T23:57:42.830Z,5.37
